메인 페이지
METAR-TAF:

METAR-TAF

공항 :

브라질리아 국제공항

브라질리아, 브라질 연방구, 브라질

위도: 15-52S, 경도: 047-56W, 고도: 1061m

현재 날씨관측

예보는 50분 전, 02:00시(UTC)에 발표되었습니다.
남동8kt
온도 20°C
습도 68%
기압 1022 hPa
시정 10km 이상
고도 1300ft 상공 구름 조금
고도 8000ft 상공 구름 보통

METAR: SBBR 130200Z 14008KT 9999 FEW013 SCT080 20/14 Q1022

시각: 00:50 (02:50 UTC)

예보

예보는 6 시간 50분 전, 20:00시(UTC)에 발표되었습니다.
예보 대상 시간: 13일 00시부터 13일 24시까지 (UTC)
동북동10kt
시정: 7000m
고도 300ft 상공 구름 보통
확률 30%
13일 00시부터 13일 06시까지 (UTC)
고도 600ft 상공 구름 많음
고도 3500ft 상공 구름 조금, 적란운.
뇌우
전환 중
13일 06시부터 13일 08시까지 (UTC)
동북동8kt
고도 900ft 상공 구름 보통
확률 30%
13일 06시부터 13일 12시까지 (UTC)
고도 700ft 상공 구름 많음
전환 중
13일 12시부터 13일 14시까지 (UTC)
고도 3000ft 상공 구름 보통
확률 30%
13일 12시부터 13일 18시까지 (UTC)
고도 2500ft 상공 구름 많음
전환 중
13일 18시부터 13일 20시까지 (UTC)
7kt
확률 30%
13일 18시부터 13일 20시까지 (UTC)
고도 3000ft 상공 구름 많음

TAF: SBBR 122000Z 1300/1324 06010KT 7000 SCT003 TN18/1309Z TX26/1317Z PROB30 1300/1306 TS BKN006 FEW035CB BECMG 1306/1308 06008KT SCT009 PROB30 1306/1312 BKN007 BECMG 1312/1314 SCT030 PROB30 1312/1318 BKN025 BECMG 1318/1320 09007KT PROB30 1318/1320 BKN030 RMK PDE

4,000개 이상의 공항 관측 자료 및 예보 (METAR 및 TAF 보고).

지도상에서 검색 가능한 기상관측소가 노란 점과 빨간 점으로 표시되어 있습니다.

기상관측소 명을 보려면 표시 위로 마우스를 이동하세요.

날씨 관측과 예보를 보려면 클릭하세요.

지도 변경 : 확대하려면 엑스 표시가 있는 녹색 버튼, 축소하려면 빼기 표시가 있는 녹색 버튼, 다음 페이지의 지도를 보려면 녹색 화살표를 클릭하세요.


METAR-TAF: